createdAt,value
2023-02-03T00:02:15.645Z,75.90
2023-02-03T00:04:43.021Z,75.80
2023-02-03T00:07:14.197Z,76.40
2023-02-03T00:09:42.028Z,76.50
2023-02-03T00:12:09.759Z,76.30
2023-02-03T00:14:38.134Z,76.40
2023-02-03T00:17:05.866Z,76.40
2023-02-03T00:19:33.340Z,76.10
2023-02-03T00:22:01.213Z,76.20
2023-02-03T00:24:28.982Z,76.60
2023-02-03T00:26:56.375Z,76.40
2023-02-03T00:29:26.064Z,76.40
2023-02-03T00:31:54.364Z,76.50
2023-02-03T00:34:21.947Z,76.50
2023-02-03T00:36:49.490Z,76.70
2023-02-03T00:39:17.013Z,76.40
2023-02-03T00:41:44.572Z,76.40
2023-02-03T00:44:11.879Z,76.90
2023-02-03T00:46:39.747Z,77.30
2023-02-03T00:49:07.913Z,77.10
2023-02-03T00:51:35.857Z,77.20
2023-02-03T00:54:03.254Z,77.50
2023-02-03T00:56:30.741Z,77.40
2023-02-03T00:58:58.405Z,77.80
2023-02-03T01:01:25.727Z,77.70
2023-02-03T01:03:56.271Z,77.80
2023-02-03T01:06:24.354Z,77.70
2023-02-03T01:08:51.998Z,79.30
2023-02-03T01:11:27.235Z,79.00
2023-02-03T01:13:56.966Z,79.00
2023-02-03T01:16:27.682Z,78.80
2023-02-03T01:18:56.788Z,79.80
2023-02-03T01:21:26.655Z,79.70
2023-02-03T01:23:55.142Z,79.10
2023-02-03T01:26:24.469Z,79.10
2023-02-03T01:28:59.277Z,79.00
2023-02-03T01:31:31.796Z,79.00
2023-02-03T01:33:59.779Z,79.10
2023-02-03T01:36:30.929Z,79.10
2023-02-03T01:38:58.564Z,79.10
2023-02-03T01:41:30.962Z,79.20
2023-02-03T01:44:00.764Z,79.10
2023-02-03T01:46:35.262Z,79.20
2023-02-03T01:49:22.581Z,79.70
2023-02-03T01:51:50.897Z,79.50
2023-02-03T01:54:27.163Z,79.50
2023-02-03T01:57:02.042Z,79.40
2023-02-03T01:59:31.809Z,79.40
2023-02-03T02:02:00.571Z,79.60
2023-02-03T02:04:58.207Z,79.80
2023-02-03T02:07:26.157Z,79.90
2023-02-03T02:09:54.930Z,80.10
2023-02-03T02:12:22.306Z,80.30
2023-02-03T02:14:49.777Z,80.40
2023-02-03T02:18:05.057Z,80.40
2023-02-03T02:21:06.895Z,80.50
2023-02-03T02:24:11.993Z,80.40
2023-02-03T02:27:28.944Z,80.60
2023-02-03T02:30:28.762Z,80.70
2023-02-03T02:33:23.905Z,80.70
2023-02-03T02:36:30.542Z,80.70
2023-02-03T02:39:13.186Z,81.60
2023-02-03T02:41:52.556Z,81.30
2023-02-03T02:44:44.155Z,81.60
2023-02-03T02:47:22.668Z,81.60
2023-02-03T02:50:03.829Z,81.70
2023-02-03T02:52:37.809Z,81.90
2023-02-03T02:55:30.731Z,83.00
2023-02-03T02:58:11.175Z,82.60
2023-02-03T03:00:41.192Z,82.70
2023-02-03T03:03:21.908Z,82.80
2023-02-03T03:06:16.290Z,82.80
2023-02-03T03:09:15.243Z,82.90
2023-02-03T03:12:01.562Z,83.00
2023-02-03T03:14:32.357Z,83.10
2023-02-03T03:17:09.408Z,83.20
2023-02-03T03:19:44.977Z,83.30
2023-02-03T03:22:18.406Z,83.50
2023-02-03T03:24:56.291Z,83.60
2023-02-03T03:27:29.995Z,83.60
2023-02-03T03:30:14.287Z,83.60
2023-02-03T03:32:41.843Z,83.60
2023-02-03T03:35:09.822Z,83.50
2023-02-03T03:38:21.899Z,83.60
2023-02-03T03:41:26.735Z,83.30
2023-02-03T03:44:01.727Z,83.10
2023-02-03T03:46:40.156Z,83.30
2023-02-03T03:49:11.816Z,83.90
2023-02-03T03:51:56.567Z,83.40
2023-02-03T03:54:26.582Z,83.30
2023-02-03T03:57:01.000Z,83.20
2023-02-03T03:59:34.438Z,83.00
2023-02-03T04:02:05.083Z,83.10
2023-02-03T04:04:37.793Z,82.90
2023-02-03T04:07:05.346Z,82.60
2023-02-03T04:09:36.503Z,82.60
2023-02-03T04:12:06.436Z,82.60
2023-02-03T04:14:39.813Z,82.40
2023-02-03T04:17:07.213Z,82.90
2023-02-03T04:19:34.444Z,82.20
2023-02-03T04:22:01.749Z,82.10
2023-02-03T04:24:29.025Z,81.90
2023-02-03T04:26:56.314Z,81.80
2023-02-03T04:29:25.279Z,81.80
2023-02-03T04:31:52.604Z,81.60
2023-02-03T04:34:19.874Z,81.50
2023-02-03T04:36:47.173Z,81.50
2023-02-03T04:39:14.514Z,81.40
2023-02-03T04:41:41.908Z,81.30
2023-02-03T04:44:09.454Z,81.20
2023-02-03T04:46:36.753Z,81.10
2023-02-03T04:49:04.122Z,81.20
2023-02-03T04:51:31.485Z,81.20
2023-02-03T04:53:58.767Z,81.00
2023-02-03T04:56:26.111Z,81.20
2023-02-03T04:58:53.368Z,81.10
2023-02-03T05:01:20.679Z,81.00
2023-02-03T05:03:48.051Z,80.90
2023-02-03T05:06:15.312Z,81.10
2023-02-03T05:08:42.821Z,81.20
2023-02-03T05:11:10.170Z,81.20
2023-02-03T05:13:37.504Z,81.20
2023-02-03T05:16:05.546Z,81.20
2023-02-03T05:18:34.038Z,81.20
2023-02-03T05:21:01.460Z,81.30
2023-02-03T05:23:28.753Z,81.40
2023-02-03T05:25:56.096Z,81.50
2023-02-03T05:28:23.578Z,81.60
2023-02-03T05:30:51.069Z,81.60
2023-02-03T05:33:18.524Z,81.70
2023-02-03T05:35:45.937Z,81.80
2023-02-03T05:38:13.388Z,81.90
2023-02-03T05:40:59.544Z,82.10
2023-02-03T05:43:28.594Z,82.20
2023-02-03T05:46:00.693Z,82.40
2023-02-03T05:48:28.580Z,82.40
2023-02-03T05:50:56.172Z,82.60
2023-02-03T05:53:23.966Z,82.90
2023-02-03T05:55:51.294Z,82.90
2023-02-03T05:58:18.899Z,83.00
2023-02-03T06:00:46.522Z,83.20
2023-02-03T06:03:14.066Z,83.30
2023-02-03T06:05:41.542Z,83.50
2023-02-03T06:08:10.512Z,83.60
2023-02-03T06:10:37.847Z,83.60
2023-02-03T06:13:14.665Z,83.60
2023-02-03T06:15:42.928Z,83.80
2023-02-03T06:18:10.416Z,83.80
2023-02-03T06:20:37.687Z,83.90
2023-02-03T06:23:05.047Z,84.00
2023-02-03T06:25:32.832Z,84.10
2023-02-03T06:28:01.588Z,84.30
2023-02-03T06:30:29.339Z,84.50
2023-02-03T06:32:57.121Z,84.50
2023-02-03T06:35:24.551Z,84.60
2023-02-03T06:37:51.841Z,84.60
2023-02-03T06:40:19.422Z,84.90
2023-02-03T06:42:48.252Z,85.10
2023-02-03T06:45:15.965Z,85.00
2023-02-03T06:47:45.241Z,85.00
2023-02-03T06:50:15.511Z,85.30
2023-02-03T06:52:43.413Z,85.50
2023-02-03T06:55:11.189Z,85.60
2023-02-03T06:57:45.551Z,85.80
2023-02-03T07:00:18.445Z,85.80
2023-02-03T07:02:47.115Z,85.80
2023-02-03T07:05:14.633Z,85.90
2023-02-03T07:07:42.191Z,85.90
2023-02-03T07:10:10.381Z,85.90
2023-02-03T07:12:37.789Z,86.10
2023-02-03T07:15:05.980Z,86.10
2023-02-03T07:17:33.334Z,86.20
2023-02-03T07:20:00.633Z,86.10
2023-02-03T07:22:28.007Z,86.40
2023-02-03T07:24:55.437Z,86.40
2023-02-03T07:27:24.918Z,86.40
2023-02-03T07:29:52.130Z,86.20
2023-02-03T07:32:19.404Z,86.10
2023-02-03T07:34:46.639Z,86.30
2023-02-03T07:37:13.841Z,86.30
2023-02-03T07:39:41.182Z,86.00
2023-02-03T07:42:08.396Z,86.10
2023-02-03T07:44:35.634Z,86.20
2023-02-03T07:47:02.916Z,86.30
2023-02-03T07:49:30.220Z,86.50
2023-02-03T07:51:57.549Z,86.60
2023-02-03T07:54:25.006Z,86.70
2023-02-03T07:56:52.415Z,87.30
2023-02-03T07:59:19.817Z,86.60
2023-02-03T08:01:47.225Z,86.70
2023-02-03T08:04:16.627Z,86.80
2023-02-03T08:06:44.327Z,86.80
2023-02-03T08:09:11.642Z,86.80
2023-02-03T08:11:39.036Z,86.60
2023-02-03T08:14:06.352Z,86.60
2023-02-03T08:16:33.929Z,86.60
2023-02-03T08:19:01.197Z,86.80
2023-02-03T08:21:28.469Z,86.70
2023-02-03T08:23:55.864Z,86.90
2023-02-03T08:26:23.217Z,86.80
2023-02-03T08:28:50.993Z,86.80
2023-02-03T08:31:18.728Z,86.70
2023-02-03T08:33:46.198Z,86.60
2023-02-03T08:36:14.044Z,86.60
2023-02-03T08:38:41.981Z,87.00
2023-02-03T08:41:12.958Z,86.90
2023-02-03T08:43:40.734Z,87.10
2023-02-03T08:46:10.935Z,87.00
2023-02-03T08:48:38.548Z,87.20
2023-02-03T08:51:14.842Z,87.20
2023-02-03T08:53:42.254Z,87.10
2023-02-03T08:56:12.491Z,87.10
2023-02-03T08:58:40.340Z,87.80
2023-02-03T09:01:14.851Z,87.30
2023-02-03T09:03:42.992Z,87.30
2023-02-03T09:06:16.745Z,87.10
2023-02-03T09:08:46.236Z,87.10
2023-02-03T09:11:17.195Z,87.30
2023-02-03T09:13:46.104Z,87.10
2023-02-03T09:16:17.547Z,87.20
2023-02-03T09:18:48.637Z,87.20
2023-02-03T09:21:31.639Z,87.20
2023-02-03T09:24:03.367Z,87.30
2023-02-03T09:26:30.750Z,87.30
2023-02-03T09:28:58.005Z,87.20
2023-02-03T09:31:25.368Z,87.30
2023-02-03T09:33:52.601Z,87.40
2023-02-03T09:36:19.969Z,87.40
2023-02-03T09:38:47.318Z,87.30
2023-02-03T09:41:51.345Z,87.40
2023-02-03T09:44:26.566Z,86.90
2023-02-03T09:47:11.083Z,87.20
2023-02-03T09:49:47.417Z,86.90
2023-02-03T09:52:19.482Z,86.90
2023-02-03T09:54:58.755Z,87.00
2023-02-03T09:57:30.028Z,87.00
2023-02-03T10:00:02.406Z,86.90
2023-02-03T10:02:52.993Z,86.60
2023-02-03T10:05:23.268Z,86.90
2023-02-03T10:08:10.007Z,87.10
2023-02-03T10:11:09.644Z,87.20
2023-02-03T10:13:52.580Z,87.20
2023-02-03T10:16:42.372Z,86.80
2023-02-03T10:19:21.438Z,86.60
2023-02-03T10:22:00.216Z,86.60
2023-02-03T10:24:51.085Z,86.50
2023-02-03T10:27:23.064Z,86.80
2023-02-03T10:30:24.312Z,86.40
2023-02-03T10:33:22.218Z,86.40
2023-02-03T10:35:49.389Z,86.40
2023-02-03T10:38:42.184Z,86.30
2023-02-03T10:41:09.770Z,86.40
2023-02-03T10:43:53.090Z,86.60
2023-02-03T10:46:38.019Z,86.60
2023-02-03T10:49:05.624Z,86.60
2023-02-03T10:51:57.959Z,86.80
2023-02-03T10:54:34.827Z,86.90
2023-02-03T10:57:14.952Z,87.40
2023-02-03T10:59:45.777Z,87.80
2023-02-03T11:02:30.959Z,88.10
2023-02-03T11:05:20.419Z,88.80
2023-02-03T11:07:48.651Z,89.30
2023-02-03T11:10:37.900Z,89.30
2023-02-03T11:13:19.512Z,89.20
2023-02-03T11:16:01.301Z,88.80
2023-02-03T11:18:52.484Z,88.00
2023-02-03T11:21:25.239Z,87.50
2023-02-03T11:24:05.381Z,87.20
2023-02-03T11:26:46.769Z,86.30
2023-02-03T11:29:23.905Z,85.20
2023-02-03T11:31:55.428Z,84.90
2023-02-03T11:34:29.828Z,85.20
2023-02-03T11:36:57.596Z,84.40
2023-02-03T11:39:37.411Z,84.40
2023-02-03T11:42:25.359Z,83.90
2023-02-03T11:45:14.531Z,82.50
2023-02-03T11:48:13.107Z,82.50
2023-02-03T11:50:58.517Z,81.90
2023-02-03T11:53:57.716Z,81.70
2023-02-03T11:56:56.947Z,81.70
2023-02-03T11:59:27.195Z,81.60
2023-02-03T12:02:06.688Z,81.60
2023-02-03T12:04:42.956Z,81.40
2023-02-03T12:07:31.196Z,81.00
2023-02-03T12:10:19.737Z,80.90
2023-02-03T12:13:13.686Z,80.70
2023-02-03T12:16:27.887Z,81.10
2023-02-03T12:19:42.191Z,81.30
2023-02-03T12:22:48.696Z,82.00
2023-02-03T12:25:45.676Z,82.70
2023-02-03T12:28:37.726Z,82.60
2023-02-03T12:31:37.817Z,82.70
2023-02-03T12:34:38.254Z,82.80
2023-02-03T12:37:29.353Z,82.00
2023-02-03T12:40:04.831Z,82.50
2023-02-03T12:42:57.785Z,83.00
2023-02-03T12:45:38.348Z,83.00
2023-02-03T12:48:19.275Z,83.30
2023-02-03T12:51:00.844Z,83.50
2023-02-03T12:53:36.700Z,83.70
2023-02-03T12:56:20.161Z,84.10
2023-02-03T12:59:05.284Z,84.60
2023-02-03T13:01:40.524Z,84.80
2023-02-03T13:04:30.182Z,85.20
2023-02-03T13:07:25.946Z,85.70
2023-02-03T13:10:05.733Z,85.50
2023-02-03T13:12:42.938Z,85.70
2023-02-03T13:15:34.557Z,86.00
2023-02-03T13:18:26.473Z,86.50
2023-02-03T13:20:54.632Z,86.40
2023-02-03T13:23:24.056Z,86.30
2023-02-03T13:26:25.433Z,86.10
2023-02-03T13:29:20.816Z,86.20
2023-02-03T13:32:18.066Z,86.00
2023-02-03T13:34:57.237Z,85.50
2023-02-03T13:38:02.349Z,85.70
2023-02-03T13:40:40.631Z,85.70
2023-02-03T13:43:38.084Z,85.60
2023-02-03T13:46:11.088Z,85.40
2023-02-03T13:48:38.632Z,85.60
2023-02-03T13:51:16.234Z,85.50
2023-02-03T13:53:47.491Z,84.70
2023-02-03T13:56:28.719Z,85.30
2023-02-03T13:59:42.088Z,84.40
2023-02-03T14:02:26.906Z,84.10
2023-02-03T14:04:57.422Z,84.10
2023-02-03T14:07:38.824Z,84.30
2023-02-03T14:10:16.412Z,84.60
2023-02-03T14:12:52.529Z,84.70
2023-02-03T14:15:26.480Z,84.80
2023-02-03T14:17:58.241Z,85.20
2023-02-03T14:20:41.560Z,85.20
2023-02-03T14:23:23.467Z,85.90
2023-02-03T14:25:57.826Z,86.30
2023-02-03T14:28:47.457Z,86.60
2023-02-03T14:31:21.138Z,86.80
2023-02-03T14:33:48.478Z,87.30
2023-02-03T14:36:35.109Z,87.60
2023-02-03T14:39:55.382Z,88.70
2023-02-03T14:42:51.846Z,89.40
2023-02-03T14:45:32.677Z,89.40
2023-02-03T14:48:11.520Z,90.10
2023-02-03T14:51:22.461Z,90.20
2023-02-03T14:54:41.400Z,90.40
2023-02-03T14:57:25.396Z,90.90
2023-02-03T15:00:01.705Z,91.30
2023-02-03T15:02:32.099Z,91.20
2023-02-03T15:05:14.780Z,91.20
2023-02-03T15:07:49.371Z,91.10
2023-02-03T15:10:23.504Z,91.10
2023-02-03T15:12:57.102Z,91.00
2023-02-03T15:15:32.193Z,91.10
2023-02-03T15:18:21.383Z,91.00
2023-02-03T15:20:54.473Z,91.00
2023-02-03T15:23:25.868Z,90.80
2023-02-03T15:26:02.318Z,90.80
2023-02-03T15:28:30.770Z,90.70
2023-02-03T15:31:19.901Z,90.60
2023-02-03T15:33:50.153Z,90.50
2023-02-03T15:36:41.974Z,90.40
2023-02-03T15:39:39.882Z,90.30
2023-02-03T15:42:20.767Z,90.30
2023-02-03T15:45:26.792Z,90.20
2023-02-03T15:48:15.016Z,90.00
2023-02-03T15:50:55.556Z,89.80
2023-02-03T15:53:45.330Z,89.70
2023-02-03T15:56:38.183Z,89.10
2023-02-03T15:59:19.428Z,89.20
2023-02-03T16:01:47.077Z,89.10
2023-02-03T16:04:14.843Z,88.90
2023-02-03T16:06:48.822Z,88.90
2023-02-03T16:09:39.086Z,88.60
2023-02-03T16:12:18.559Z,87.80
2023-02-03T16:14:46.650Z,88.00
2023-02-03T16:17:35.571Z,87.90
2023-02-03T16:20:12.153Z,87.70
2023-02-03T16:23:00.075Z,87.90
2023-02-03T16:25:32.153Z,87.70
2023-02-03T16:28:32.060Z,87.50
2023-02-03T16:31:35.460Z,87.30
2023-02-03T16:34:35.449Z,86.40
2023-02-03T16:37:39.268Z,86.40
2023-02-03T16:40:25.444Z,86.40
2023-02-03T16:43:11.464Z,86.20
2023-02-03T16:45:57.755Z,84.80
2023-02-03T16:48:44.044Z,85.30
2023-02-03T16:51:17.445Z,85.40
2023-02-03T16:53:48.481Z,84.90
2023-02-03T16:56:18.623Z,84.80
2023-02-03T16:58:46.017Z,84.20
2023-02-03T17:01:14.598Z,83.90
2023-02-03T17:03:41.964Z,83.80
2023-02-03T17:06:12.111Z,83.60
2023-02-03T17:08:41.576Z,83.60
2023-02-03T17:11:18.308Z,83.30
2023-02-03T17:13:47.328Z,83.60
2023-02-03T17:16:22.964Z,83.90
2023-02-03T17:18:50.768Z,84.00
2023-02-03T17:21:23.594Z,84.00
2023-02-03T17:23:51.376Z,84.00
2023-02-03T17:26:19.368Z,84.00
2023-02-03T17:28:46.722Z,83.80
2023-02-03T17:31:17.919Z,82.80
2023-02-03T17:33:45.950Z,82.90
2023-02-03T17:36:18.084Z,82.50
2023-02-03T17:55:21.158Z,82.00
2023-02-03T17:57:48.415Z,82.70
2023-02-03T18:00:16.228Z,82.30
2023-02-03T18:02:43.812Z,82.30
2023-02-03T18:05:11.543Z,82.60
2023-02-03T18:07:38.871Z,83.00
2023-02-03T18:10:08.898Z,83.50
2023-02-03T18:12:36.298Z,83.80
2023-02-03T18:15:04.023Z,83.80
2023-02-03T18:17:31.278Z,84.10
2023-02-03T18:20:00.602Z,84.60
2023-02-03T18:22:28.008Z,85.00
2023-02-03T18:24:55.694Z,84.80
2023-02-03T18:27:23.131Z,85.40
2023-02-03T18:29:50.502Z,86.30
2023-02-03T18:32:17.869Z,87.70
2023-02-03T18:34:45.273Z,88.60
2023-02-03T18:37:12.681Z,88.90
2023-02-03T18:39:40.107Z,88.70
2023-02-03T18:42:08.885Z,89.70
2023-02-03T18:44:37.768Z,89.70
2023-02-03T18:47:08.418Z,89.30
2023-02-03T18:49:40.175Z,89.30
2023-02-03T18:52:07.882Z,89.50
2023-02-03T18:54:35.881Z,90.00
2023-02-03T18:57:04.498Z,89.80
2023-02-03T18:59:32.123Z,89.60
2023-02-03T19:01:59.628Z,88.50
2023-02-03T19:04:26.858Z,87.70
2023-02-03T19:06:54.136Z,87.80
2023-02-03T19:09:23.748Z,87.20
2023-02-03T19:11:51.518Z,87.00
2023-02-03T19:14:19.502Z,86.70
2023-02-03T19:16:50.487Z,86.10
2023-02-03T19:19:18.097Z,85.50
2023-02-03T19:21:48.742Z,85.80
2023-02-03T19:24:16.745Z,85.30
2023-02-03T19:26:44.243Z,85.50
2023-02-03T19:29:11.620Z,85.20
2023-02-03T19:31:39.217Z,85.10
2023-02-03T19:34:06.860Z,84.00
2023-02-03T19:36:34.778Z,84.30
2023-02-03T19:39:02.198Z,84.10
2023-02-03T19:41:30.970Z,84.10
2023-02-03T19:44:14.559Z,84.00
2023-02-03T19:46:42.325Z,84.10
2023-02-03T19:49:13.208Z,83.90
2023-02-03T19:51:42.798Z,83.50
2023-02-03T19:54:19.840Z,84.00
2023-02-03T19:56:47.329Z,84.00
2023-02-03T19:59:14.765Z,83.90
2023-02-03T20:01:42.492Z,83.80
2023-02-03T20:04:10.353Z,83.90
2023-02-03T20:06:38.543Z,83.90
2023-02-03T20:09:06.739Z,83.90
2023-02-03T20:11:34.270Z,83.80
2023-02-03T20:14:01.585Z,83.70
2023-02-03T20:16:28.950Z,83.80
2023-02-03T20:18:56.491Z,83.30
2023-02-03T20:21:23.770Z,82.70
2023-02-03T20:23:51.025Z,82.90
2023-02-03T20:26:18.354Z,82.70
2023-02-03T20:28:47.387Z,82.70
2023-02-03T20:31:14.867Z,82.60
2023-02-03T20:33:42.212Z,82.40
2023-02-03T20:36:11.485Z,81.60
2023-02-03T20:38:38.871Z,81.80
2023-02-03T20:41:12.081Z,81.70
2023-02-03T20:43:39.551Z,81.10
2023-02-03T20:46:15.104Z,81.10
2023-02-03T20:48:42.687Z,80.70
2023-02-03T20:51:14.993Z,80.70
2023-02-03T20:53:44.248Z,80.90
2023-02-03T20:56:18.398Z,80.30
2023-02-03T20:58:45.976Z,79.50
2023-02-03T21:01:22.841Z,79.70
2023-02-03T21:04:09.442Z,78.70
2023-02-03T21:06:37.287Z,79.00
2023-02-03T21:09:20.980Z,78.90
2023-02-03T21:11:48.382Z,78.60
2023-02-03T21:14:36.853Z,78.70
2023-02-03T21:17:14.646Z,78.90
2023-02-03T21:19:42.435Z,78.90
2023-02-03T21:22:32.654Z,78.80
2023-02-03T21:25:03.382Z,78.40
2023-02-03T21:27:35.101Z,78.60
2023-02-03T21:30:24.287Z,78.80
2023-02-03T21:32:51.558Z,78.80
2023-02-03T21:35:37.795Z,78.80
2023-02-03T21:38:28.072Z,78.90
2023-02-03T21:40:55.352Z,79.10
2023-02-03T21:43:24.667Z,79.30
2023-02-03T21:45:52.193Z,79.40
2023-02-03T21:48:40.439Z,79.60
2023-02-03T21:51:23.350Z,80.10
2023-02-03T21:53:55.478Z,80.70
2023-02-03T21:56:38.519Z,80.90
2023-02-03T21:59:28.477Z,80.50
2023-02-03T22:01:58.590Z,80.70
2023-02-03T22:04:33.353Z,82.00
2023-02-03T22:07:00.697Z,82.10
2023-02-03T22:09:28.087Z,82.50
2023-02-03T22:11:55.492Z,82.70
2023-02-03T22:14:23.079Z,82.60
2023-02-03T22:16:50.895Z,82.70
2023-02-03T22:19:18.249Z,82.70
2023-02-03T22:21:47.743Z,83.10
2023-02-03T22:24:15.029Z,82.70
2023-02-03T22:26:42.295Z,83.00
2023-02-03T22:29:09.679Z,83.10
2023-02-03T22:31:37.050Z,83.10
2023-02-03T22:34:04.510Z,82.70
2023-02-03T22:36:31.796Z,82.70
2023-02-03T22:38:59.186Z,82.50
2023-02-03T22:41:26.483Z,82.40
2023-02-03T22:43:53.756Z,82.20
2023-02-03T22:46:21.034Z,82.00
2023-02-03T22:48:48.291Z,81.90
2023-02-03T22:51:15.576Z,81.60
2023-02-03T22:53:42.914Z,81.30
2023-02-03T22:56:10.176Z,81.30
2023-02-03T22:58:37.530Z,81.20
2023-02-03T23:01:05.006Z,80.90
2023-02-03T23:03:32.840Z,80.80
2023-02-03T23:06:00.312Z,80.80
2023-02-03T23:08:27.661Z,79.80
2023-02-03T23:10:55.898Z,79.80
2023-02-03T23:13:23.796Z,79.30
2023-02-03T23:15:51.744Z,78.80
2023-02-03T23:18:19.027Z,79.20
2023-02-03T23:20:46.377Z,78.80
2023-02-03T23:23:14.341Z,78.40
2023-02-03T23:25:41.748Z,78.60
2023-02-03T23:28:09.009Z,78.30
2023-02-03T23:30:36.383Z,77.80
2023-02-03T23:33:03.688Z,78.00
2023-02-03T23:35:46.407Z,78.00
2023-02-03T23:38:17.850Z,77.70
2023-02-03T23:40:45.474Z,77.80
2023-02-03T23:43:12.839Z,77.80
2023-02-03T23:45:41.133Z,77.60
2023-02-03T23:48:08.721Z,77.20
2023-02-03T23:50:36.264Z,77.20
2023-02-03T23:53:03.858Z,77.10
2023-02-03T23:55:31.530Z,77.00
2023-02-03T23:57:58.871Z,77.10
